createdAt,value
2022-08-05T00:00:21.087Z,21.52
2022-08-05T00:02:51.743Z,21.73
2022-08-05T00:06:01.720Z,21.73
2022-08-05T00:08:06.330Z,21.59
2022-08-05T00:10:52.705Z,21.73
2022-08-05T00:13:19.836Z,21.57
2022-08-05T00:15:55.877Z,21.78
2022-08-05T00:18:26.321Z,21.74
2022-08-05T00:20:55.854Z,21.72
2022-08-05T00:23:44.415Z,21.64
2022-08-05T00:26:10.128Z,21.38
2022-08-05T00:28:37.826Z,21.69
2022-08-05T00:31:07.577Z,21.76
2022-08-05T00:34:55.493Z,21.76
2022-08-05T00:37:11.418Z,21.78
2022-08-05T00:39:13.389Z,21.51
2022-08-05T00:41:51.966Z,21.61
2022-08-05T00:44:23.160Z,21.48
2022-08-05T00:46:54.282Z,21.81
2022-08-05T00:49:32.835Z,21.68
2022-08-05T00:52:10.883Z,21.70
2022-08-05T00:54:38.807Z,22.13
2022-08-05T00:57:05.680Z,22.05
2022-08-05T00:59:34.479Z,22.17
2022-08-05T01:02:10.927Z,22.01
2022-08-05T01:04:42.223Z,22.14
2022-08-05T01:07:23.485Z,22.01
2022-08-05T01:09:55.883Z,22.07
2022-08-05T01:12:24.845Z,22.08
2022-08-05T01:15:04.087Z,22.02
2022-08-05T01:17:40.144Z,21.87
2022-08-05T01:20:27.126Z,21.85
2022-08-05T01:23:15.120Z,21.79
2022-08-05T01:25:58.427Z,21.83
2022-08-05T01:28:28.956Z,21.96
2022-08-05T01:31:01.043Z,22.01
2022-08-05T01:33:35.602Z,21.91
2022-08-05T01:36:12.826Z,21.74
2022-08-05T01:38:44.007Z,21.40
2022-08-05T01:41:13.943Z,21.31
2022-08-05T01:43:43.057Z,21.22
2022-08-05T01:46:41.231Z,21.21
2022-08-05T01:48:58.768Z,21.23
2022-08-05T01:51:29.315Z,21.47
2022-08-05T01:53:59.318Z,21.54
2022-08-05T01:58:11.869Z,21.53
2022-08-05T01:59:21.659Z,21.61
2022-08-05T02:01:51.493Z,21.53
2022-08-05T02:04:23.617Z,21.80
2022-08-05T02:06:50.801Z,21.86
2022-08-05T02:09:17.386Z,21.97
2022-08-05T02:11:52.340Z,21.85
2022-08-05T02:14:27.373Z,21.96
2022-08-05T02:16:59.476Z,21.98
2022-08-05T02:19:34.491Z,21.80
2022-08-05T02:22:08.966Z,21.70
2022-08-05T02:24:51.357Z,21.86
2022-08-05T02:27:30.100Z,21.78
2022-08-05T02:30:12.102Z,21.55
2022-08-05T02:32:40.984Z,21.40
2022-08-05T02:35:14.268Z,21.34
2022-08-05T02:37:43.114Z,21.56
2022-08-05T02:40:16.806Z,21.48
2022-08-05T02:42:44.646Z,21.68
2022-08-05T02:45:24.213Z,21.41
2022-08-05T02:48:09.878Z,21.32
2022-08-05T02:50:43.632Z,21.54
2022-08-05T02:53:19.128Z,21.53
2022-08-05T02:55:52.017Z,21.57
2022-08-05T02:58:27.145Z,21.46
2022-08-05T03:00:58.906Z,21.66
2022-08-05T03:03:27.671Z,21.73
2022-08-05T03:06:54.783Z,21.85
2022-08-05T03:08:52.171Z,21.66
2022-08-05T03:11:55.115Z,21.55
2022-08-05T03:14:08.033Z,21.39
2022-08-05T03:16:36.184Z,20.49
2022-08-05T03:19:12.609Z,19.89
2022-08-05T03:21:48.766Z,19.89
2022-08-05T03:24:18.432Z,20.25
2022-08-05T03:26:56.375Z,19.76
2022-08-05T03:29:45.781Z,19.50
2022-08-05T03:32:15.605Z,19.38
2022-08-05T03:34:49.592Z,19.63
2022-08-05T03:37:18.675Z,19.69
2022-08-05T03:40:06.771Z,20.16
2022-08-05T03:42:41.835Z,20.38
2022-08-05T03:45:22.041Z,20.56
2022-08-05T03:47:50.920Z,20.73
2022-08-05T03:50:17.715Z,20.77
2022-08-05T03:55:00.395Z,20.93
2022-08-05T03:56:05.556Z,21.00
2022-08-05T03:58:32.723Z,20.92
2022-08-05T04:01:02.166Z,20.95
2022-08-05T04:03:38.070Z,20.92
2022-08-05T04:06:06.284Z,21.11
2022-08-05T04:08:37.127Z,21.19
2022-08-05T04:11:04.794Z,21.22
2022-08-05T04:13:50.017Z,21.32
2022-08-05T04:16:24.121Z,21.15
2022-08-05T04:18:54.198Z,21.03
2022-08-05T04:22:09.623Z,21.16
2022-08-05T04:24:08.879Z,21.09
2022-08-05T04:26:35.742Z,20.87
2022-08-05T04:29:07.050Z,20.98
2022-08-05T04:31:37.575Z,21.08
2022-08-05T04:34:29.555Z,21.14
2022-08-05T04:36:53.752Z,20.91
2022-08-05T04:39:20.982Z,20.92
2022-08-05T04:41:48.742Z,20.86
2022-08-05T04:44:28.960Z,20.95
2022-08-05T04:46:56.426Z,21.00
2022-08-05T04:49:24.796Z,20.67
2022-08-05T04:52:06.149Z,20.70
2022-08-05T04:54:34.375Z,20.48
2022-08-05T04:57:01.310Z,20.63
2022-08-05T04:59:38.391Z,20.82
2022-08-05T05:02:36.082Z,20.96
2022-08-05T05:05:02.155Z,21.09
2022-08-05T05:07:31.922Z,21.21
2022-08-05T05:09:59.066Z,21.19
2022-08-05T05:12:28.583Z,21.06
2022-08-05T05:14:55.133Z,21.05
2022-08-05T05:17:24.488Z,20.74
2022-08-05T05:19:54.823Z,20.90
2022-08-05T05:22:24.551Z,20.76
2022-08-05T05:24:56.916Z,21.08
2022-08-05T05:27:41.294Z,21.14
2022-08-05T05:30:15.383Z,21.11
2022-08-05T05:32:42.399Z,21.12
2022-08-05T05:35:10.909Z,21.15
2022-08-05T05:38:00.305Z,21.28
2022-08-05T05:40:29.367Z,21.09
2022-08-05T05:42:57.427Z,21.12
2022-08-05T05:45:24.927Z,21.11
2022-08-05T05:48:06.795Z,21.15
2022-08-05T05:50:44.084Z,21.25
2022-08-05T05:53:22.062Z,21.34
2022-08-05T05:55:51.689Z,21.55
2022-08-05T05:58:32.002Z,21.45
2022-08-05T06:01:12.072Z,21.74
2022-08-05T06:04:00.996Z,21.83
2022-08-05T06:06:33.096Z,21.74
2022-08-05T06:09:01.606Z,21.88
2022-08-05T06:11:30.439Z,21.82
2022-08-05T06:13:57.095Z,21.93
2022-08-05T06:16:30.495Z,21.78
2022-08-05T06:18:59.939Z,21.89
2022-08-05T06:21:36.152Z,21.79
2022-08-05T06:24:06.000Z,21.71
2022-08-05T06:26:35.087Z,21.33
2022-08-05T06:29:03.486Z,21.25
2022-08-05T06:31:33.760Z,21.30
2022-08-05T06:34:06.080Z,21.28
2022-08-05T06:36:37.345Z,21.03
2022-08-05T06:39:22.524Z,21.16
2022-08-05T06:41:54.172Z,21.13
2022-08-05T06:44:22.063Z,21.21
2022-08-05T06:46:51.039Z,21.25
2022-08-05T06:49:18.891Z,21.38
2022-08-05T06:51:49.248Z,21.28
2022-08-05T06:54:19.298Z,21.03
2022-08-05T06:56:54.994Z,21.06
2022-08-05T06:59:42.391Z,20.35
2022-08-05T07:02:22.997Z,20.02
2022-08-05T07:04:50.725Z,19.92
2022-08-05T07:07:24.073Z,19.77
2022-08-05T07:10:03.575Z,20.15
2022-08-05T07:12:30.318Z,19.72
2022-08-05T07:14:56.923Z,19.89
2022-08-05T07:18:02.124Z,19.75
2022-08-05T07:20:32.408Z,19.61
2022-08-05T07:22:58.507Z,19.65
2022-08-05T07:25:54.990Z,19.62
2022-08-05T07:28:17.087Z,19.33
2022-08-05T07:30:44.037Z,18.97
2022-08-05T07:33:17.367Z,19.04
2022-08-05T07:36:04.971Z,19.37
2022-08-05T07:38:43.636Z,19.49
2022-08-05T07:42:07.246Z,19.62
2022-08-05T07:43:59.730Z,18.94
2022-08-05T07:46:27.953Z,19.04
2022-08-05T07:49:03.505Z,18.92
2022-08-05T07:51:36.820Z,18.91
2022-08-05T07:54:09.729Z,18.63
2022-08-05T07:57:00.264Z,18.85
2022-08-05T07:59:38.638Z,19.04
2022-08-05T08:02:15.374Z,18.75
2022-08-05T08:04:46.353Z,18.84
2022-08-05T08:07:13.514Z,18.99
2022-08-05T08:09:41.498Z,19.06
2022-08-05T08:12:17.159Z,18.85
2022-08-05T08:14:55.171Z,18.90
2022-08-05T08:17:21.949Z,18.88
2022-08-05T08:20:21.241Z,18.86
2022-08-05T08:22:35.497Z,18.69
2022-08-05T08:25:15.829Z,18.67
2022-08-05T08:27:44.944Z,18.49
2022-08-05T08:30:29.858Z,18.46
2022-08-05T08:33:01.703Z,18.55
2022-08-05T08:35:35.219Z,18.73
2022-08-05T08:38:08.455Z,18.80
2022-08-05T08:40:39.964Z,18.89
2022-08-05T08:45:20.237Z,18.59
2022-08-05T08:45:57.015Z,18.83
2022-08-05T08:49:03.010Z,18.43
2022-08-05T08:52:01.836Z,18.55
2022-08-05T08:54:00.265Z,18.44
2022-08-05T08:56:29.646Z,18.63
2022-08-05T08:58:56.773Z,18.44
2022-08-05T09:01:25.168Z,18.57
2022-08-05T09:03:57.628Z,18.72
2022-08-05T09:06:29.422Z,18.89
2022-08-05T09:08:59.386Z,19.14
2022-08-05T09:11:51.637Z,19.49
2022-08-05T09:14:58.471Z,19.73
2022-08-05T09:17:02.048Z,20.03
2022-08-05T09:19:36.732Z,20.18
2022-08-05T09:22:31.090Z,20.44
2022-08-05T09:24:59.611Z,20.51
2022-08-05T09:28:05.690Z,20.48
2022-08-05T09:30:23.562Z,20.69
2022-08-05T09:32:51.373Z,20.83
2022-08-05T09:35:26.570Z,20.67
2022-08-05T09:38:12.516Z,20.63
2022-08-05T09:40:44.605Z,20.92
2022-08-05T09:43:40.578Z,20.74
2022-08-05T09:46:27.644Z,20.70
2022-08-05T09:49:08.239Z,20.29
2022-08-05T09:51:41.977Z,20.46
2022-08-05T09:54:10.277Z,20.62
2022-08-05T09:56:38.180Z,20.44
2022-08-05T09:59:07.437Z,20.51
2022-08-05T10:01:39.635Z,20.84
2022-08-05T10:04:10.549Z,20.97
2022-08-05T10:06:37.751Z,21.06
2022-08-05T10:09:25.030Z,21.22
2022-08-05T10:11:55.315Z,21.62
2022-08-05T10:14:26.661Z,22.01
2022-08-05T10:16:56.812Z,22.34
2022-08-05T10:19:31.828Z,22.80
2022-08-05T10:22:15.723Z,23.37
2022-08-05T10:24:56.467Z,22.60
2022-08-05T10:27:26.288Z,22.68
2022-08-05T10:32:47.699Z,23.24
2022-08-05T10:33:01.313Z,23.46
2022-08-05T10:35:33.852Z,22.98
2022-08-05T10:38:12.601Z,23.87
2022-08-05T10:40:45.037Z,23.90
2022-08-05T10:43:30.891Z,24.08
2022-08-05T10:46:06.282Z,25.42
2022-08-05T10:48:57.012Z,25.12
2022-08-05T10:51:28.935Z,25.30
2022-08-05T10:54:00.940Z,25.93
2022-08-05T10:56:30.249Z,24.50
2022-08-05T10:59:11.477Z,24.29
2022-08-05T11:01:54.189Z,24.88
2022-08-05T11:04:31.808Z,25.05
2022-08-05T11:07:07.497Z,24.42
2022-08-05T11:09:46.559Z,24.83
2022-08-05T11:12:50.728Z,25.52
2022-08-05T11:15:59.984Z,25.79
2022-08-05T11:18:26.592Z,25.53
2022-08-05T11:20:54.906Z,24.85
2022-08-05T11:24:04.528Z,24.47
2022-08-05T11:26:28.466Z,24.57
2022-08-05T11:29:06.659Z,23.68
2022-08-05T11:31:56.486Z,23.90
2022-08-05T11:34:37.481Z,24.59
2022-08-05T11:38:28.776Z,24.49
2022-08-05T11:39:55.311Z,24.56
2022-08-05T11:42:28.384Z,24.37
2022-08-05T11:45:01.669Z,24.32
2022-08-05T11:47:48.996Z,24.38
2022-08-05T11:50:17.552Z,24.28
2022-08-05T11:52:48.208Z,24.31
2022-08-05T11:55:15.615Z,24.00
2022-08-05T11:58:10.936Z,24.11
2022-08-05T12:00:32.571Z,24.44
2022-08-05T12:03:24.078Z,25.01
2022-08-05T12:06:00.838Z,25.70
2022-08-05T12:08:32.700Z,26.05
2022-08-05T12:11:03.436Z,25.95
2022-08-05T12:13:48.809Z,25.79
2022-08-05T12:16:19.093Z,26.41
2022-08-05T12:18:53.363Z,26.60
2022-08-05T12:21:23.723Z,27.04
2022-08-05T12:24:00.138Z,26.34
2022-08-05T12:26:32.567Z,26.23
2022-08-05T12:28:59.795Z,26.12
2022-08-05T12:31:33.533Z,25.64
2022-08-05T12:34:20.663Z,25.93
2022-08-05T12:36:49.820Z,25.92
2022-08-05T12:39:19.367Z,26.56
2022-08-05T12:41:46.053Z,25.28
2022-08-05T12:44:28.642Z,24.17
2022-08-05T12:47:01.631Z,25.04
2022-08-05T12:50:04.430Z,25.68
2022-08-05T12:52:30.396Z,25.55
2022-08-05T12:55:17.054Z,26.46
2022-08-05T12:58:48.634Z,25.63
2022-08-05T13:02:03.769Z,26.23
2022-08-05T13:03:19.217Z,25.24
2022-08-05T13:05:47.119Z,25.42
2022-08-05T13:08:18.553Z,25.82
2022-08-05T13:10:50.510Z,25.49
2022-08-05T13:14:06.170Z,26.25
2022-08-05T13:16:12.802Z,26.70
2022-08-05T13:18:50.843Z,27.22
2022-08-05T13:21:17.431Z,26.59
2022-08-05T13:23:50.992Z,25.24
2022-08-05T13:26:24.073Z,25.34
2022-08-05T13:28:57.436Z,25.19
2022-08-05T13:31:33.739Z,25.19
2022-08-05T13:34:25.160Z,24.09
2022-08-05T13:36:53.060Z,24.30
2022-08-05T13:40:14.514Z,24.64
2022-08-05T13:42:14.215Z,25.40
2022-08-05T13:44:45.327Z,26.04
2022-08-05T13:47:35.501Z,25.88
2022-08-05T13:50:04.384Z,25.99
2022-08-05T13:52:35.299Z,25.94
2022-08-05T13:55:07.440Z,25.45
2022-08-05T13:57:49.059Z,25.49
2022-08-05T14:00:41.761Z,25.76
2022-08-05T14:03:16.422Z,25.94
2022-08-05T14:06:04.835Z,26.25
2022-08-05T14:08:32.582Z,26.78
2022-08-05T14:11:20.510Z,27.15
2022-08-05T14:13:57.753Z,26.86
2022-08-05T14:16:27.817Z,27.10
2022-08-05T14:23:51.648Z,27.80
2022-08-05T14:25:22.670Z,27.98
2022-08-05T14:49:56.179Z,26.69
2022-08-05T14:52:36.271Z,26.76
2022-08-05T14:55:05.129Z,27.40
2022-08-05T14:57:34.107Z,26.75
2022-08-05T15:00:19.892Z,26.61
2022-08-05T15:02:46.814Z,26.36
2022-08-05T15:05:15.545Z,26.13
2022-08-05T15:08:11.180Z,26.25
2022-08-05T15:10:40.020Z,26.40
2022-08-05T15:13:09.909Z,25.78
2022-08-05T15:15:55.203Z,25.77
2022-08-05T15:18:23.238Z,25.57
2022-08-05T15:20:51.471Z,25.86
2022-08-05T15:23:22.575Z,25.71
2022-08-05T15:26:37.957Z,25.71
2022-08-05T15:29:56.817Z,25.60
2022-08-05T15:41:20.730Z,24.92
2022-08-05T15:52:03.799Z,26.00
2022-08-05T15:54:53.760Z,25.30
2022-08-05T15:57:50.155Z,24.78
2022-08-05T16:00:26.011Z,24.11
2022-08-05T16:03:28.469Z,24.18
2022-08-05T16:09:16.734Z,24.01
2022-08-05T16:11:53.078Z,23.92
2022-08-05T16:14:21.056Z,23.92
2022-08-05T16:27:47.450Z,24.34
2022-08-05T16:30:33.518Z,24.17
2022-08-05T16:33:01.246Z,23.90
2022-08-05T16:35:33.615Z,24.13
2022-08-05T16:38:15.981Z,23.77
2022-08-05T16:40:59.556Z,23.72
2022-08-05T16:43:29.434Z,23.80
2022-08-05T16:46:04.781Z,23.23
2022-08-05T16:48:37.010Z,23.41
2022-08-05T16:51:09.105Z,23.43
2022-08-05T16:54:05.366Z,23.61
2022-08-05T16:56:25.160Z,23.39
2022-08-05T16:58:51.893Z,23.70
2022-08-05T17:01:18.851Z,23.84
2022-08-05T17:03:45.888Z,24.31
2022-08-05T17:06:13.259Z,24.61
2022-08-05T17:08:53.358Z,24.47
2022-08-05T17:11:25.337Z,24.13
2022-08-05T17:16:39.230Z,23.20
2022-08-05T17:19:07.472Z,23.61
2022-08-05T17:21:37.545Z,23.90
2022-08-05T17:24:28.266Z,23.62
2022-08-05T17:31:56.523Z,23.44
2022-08-05T17:34:55.055Z,23.55
2022-08-05T17:37:40.463Z,23.38
2022-08-05T17:40:14.916Z,23.75
2022-08-05T17:42:50.513Z,23.50
2022-08-05T17:45:21.029Z,23.97
2022-08-05T17:47:54.506Z,23.74
2022-08-05T17:50:30.958Z,23.13
2022-08-05T17:52:59.694Z,23.61
2022-08-05T17:55:37.639Z,23.36
2022-08-05T17:58:09.691Z,23.09
2022-08-05T18:00:44.286Z,23.34
2022-08-05T18:03:28.028Z,23.12
2022-08-05T18:06:01.533Z,23.02
2022-08-05T18:08:28.648Z,22.49
2022-08-05T18:10:57.041Z,22.52
2022-08-05T18:13:25.712Z,22.04
2022-08-05T18:15:52.713Z,22.35
2022-08-05T18:18:26.355Z,22.40
2022-08-05T18:20:53.801Z,22.09
2022-08-05T18:23:21.742Z,21.92
2022-08-05T18:25:48.608Z,21.81
2022-08-05T18:28:28.510Z,21.89
2022-08-05T18:30:55.165Z,21.70
2022-08-05T18:33:24.038Z,21.57
2022-08-05T18:36:03.670Z,21.37
2022-08-05T18:38:33.822Z,21.42
2022-08-05T18:42:00.263Z,21.49
2022-08-05T18:43:48.411Z,21.65
2022-08-05T18:46:15.744Z,21.45
2022-08-05T18:48:46.938Z,21.52
2022-08-05T18:52:04.620Z,21.27
2022-08-05T18:54:02.403Z,20.98
2022-08-05T18:56:29.332Z,21.17
2022-08-05T18:59:01.207Z,20.99
2022-08-05T19:01:47.292Z,20.94
2022-08-05T19:04:15.049Z,20.88
2022-08-05T19:06:53.813Z,21.05
2022-08-05T19:09:21.417Z,20.85
2022-08-05T19:11:59.941Z,20.74
2022-08-05T19:14:44.932Z,20.65
2022-08-05T19:17:14.120Z,20.49
2022-08-05T19:19:46.317Z,20.29
2022-08-05T19:22:17.203Z,20.11
2022-08-05T19:24:56.313Z,20.24
2022-08-05T19:27:24.178Z,20.16
2022-08-05T19:29:54.833Z,20.20
2022-08-05T19:32:23.266Z,20.21
2022-08-05T19:34:55.060Z,20.25
2022-08-05T19:37:47.291Z,20.24
2022-08-05T19:40:11.163Z,20.18
2022-08-05T19:42:38.758Z,20.22
2022-08-05T19:45:06.758Z,20.17
2022-08-05T19:47:34.079Z,20.05
2022-08-05T19:50:01.205Z,20.13
2022-08-05T19:52:31.618Z,20.01
2022-08-05T19:55:00.448Z,20.10
2022-08-05T19:57:47.629Z,19.86
2022-08-05T20:00:20.756Z,19.64
2022-08-05T20:02:47.495Z,19.49
2022-08-05T20:05:16.618Z,19.59
2022-08-05T20:07:57.696Z,19.62
2022-08-05T20:10:26.051Z,19.58
2022-08-05T20:12:52.902Z,19.24
2022-08-05T20:15:23.330Z,19.28
2022-08-05T20:21:27.645Z,18.92
2022-08-05T20:23:59.042Z,18.97
2022-08-05T20:26:32.193Z,19.00
2022-08-05T20:29:00.692Z,18.88
2022-08-05T20:31:42.995Z,18.91
2022-08-05T20:34:15.172Z,18.86
2022-08-05T20:36:43.514Z,18.74
2022-08-05T20:39:13.234Z,18.60
2022-08-05T20:41:44.334Z,18.69
2022-08-05T20:44:29.730Z,18.77
2022-08-05T20:46:58.422Z,18.80
2022-08-05T20:53:16.188Z,18.85
2022-08-05T20:56:08.838Z,18.64
2022-08-05T20:58:36.182Z,18.55
2022-08-05T21:01:04.196Z,18.47
2022-08-05T21:03:34.188Z,18.54
2022-08-05T21:06:01.822Z,18.31
2022-08-05T21:08:56.306Z,18.49
2022-08-05T21:12:09.588Z,18.40
2022-08-05T21:14:11.249Z,18.53
2022-08-05T21:16:39.267Z,18.46
2022-08-05T21:19:05.910Z,18.24
2022-08-05T21:21:44.149Z,18.29
2022-08-05T21:24:17.110Z,18.36
2022-08-05T21:26:58.017Z,18.33
2022-08-05T21:29:32.126Z,18.28
2022-08-05T21:31:59.592Z,18.34
2022-08-05T21:34:28.333Z,18.06
2022-08-05T21:36:58.552Z,18.29
2022-08-05T21:39:26.987Z,18.17
2022-08-05T21:42:01.538Z,18.05
2022-08-05T21:44:29.149Z,18.14
2022-08-05T21:46:56.358Z,17.92
2022-08-05T21:50:00.498Z,17.84
2022-08-05T21:52:22.082Z,17.75
2022-08-05T21:56:04.219Z,17.53
2022-08-05T21:58:15.764Z,17.54
2022-08-05T22:00:51.340Z,17.40
2022-08-05T22:03:18.460Z,17.46
2022-08-05T22:06:05.507Z,17.41
2022-08-05T22:08:45.281Z,17.25
2022-08-05T22:11:18.782Z,17.29
2022-08-05T22:14:38.821Z,17.27
2022-08-05T22:17:07.645Z,17.11
2022-08-05T22:20:01.701Z,17.22
2022-08-05T22:22:28.001Z,17.16
2022-08-05T22:24:56.114Z,17.10
2022-08-05T22:30:36.851Z,16.90
2022-08-05T22:33:15.438Z,16.94
2022-08-05T22:35:48.617Z,16.82
2022-08-05T22:38:29.044Z,16.63
2022-08-05T22:40:55.772Z,16.55
2022-08-05T22:43:37.345Z,16.74
2022-08-05T22:46:13.110Z,16.69
2022-08-05T22:48:43.265Z,16.77
2022-08-05T22:54:19.306Z,16.69
2022-08-05T23:00:23.084Z,16.59
2022-08-05T23:02:50.688Z,16.63
2022-08-05T23:05:21.966Z,16.49
2022-08-05T23:07:50.441Z,16.49
2022-08-05T23:10:19.889Z,16.58
2022-08-05T23:12:47.422Z,16.45
2022-08-05T23:15:18.073Z,16.58
2022-08-05T23:18:01.435Z,16.53
2022-08-05T23:20:31.374Z,16.57
2022-08-05T23:22:59.041Z,16.48
2022-08-05T23:25:54.723Z,16.36
2022-08-05T23:28:15.954Z,16.42
2022-08-05T23:30:53.488Z,16.28
2022-08-05T23:33:22.526Z,16.23
2022-08-05T23:35:56.021Z,16.39
2022-08-05T23:38:24.196Z,16.32
2022-08-05T23:40:52.801Z,16.30
2022-08-05T23:43:24.826Z,16.24
2022-08-05T23:46:22.620Z,16.18
2022-08-05T23:49:00.678Z,16.16
2022-08-05T23:51:31.217Z,16.12
2022-08-05T23:54:01.403Z,16.14
2022-08-05T23:56:28.143Z,16.06
2022-08-05T23:58:58.725Z,16.00
